Time;durP1;ratioP1;P1;durP2;ratioP2;P2;SDS_P1;SDS_P2;PMS_P1;PMS_P2;Temp;Humidity;BMP_temperature;BMP_pressure;BME280_temperature;BME280_humidity;BME280_pressure;Samples;Min_cycle;Max_cycle;Signal;HPM_P1;HPM_P2
2022/09/05 00:00:13;;;;;;;;;;;20.70;83.90;;;;;;4830751;29;19966;-96
2022/09/05 00:02:58;;;;;;;;;;;20.60;84.30;;;;;;4830397;29;19983;-96
2022/09/05 00:05:35;;;;;;;;;;;20.50;84.50;;;;;;4814555;29;19948;-96
2022/09/05 00:08:17;;;;;;;;;;;20.50;84.70;;;;;;4829077;29;19969;-96
2022/09/05 00:11:02;;;;;;;;;;;20.50;84.80;;;;;;4830142;29;19932;-96
2022/09/05 00:13:55;;;;;;;;;;;20.50;84.90;;;;;;4811590;30;19981;-96
2022/09/05 00:16:39;;;;;;;;;;;20.30;84.60;;;;;;4826656;29;19957;-96
2022/09/05 00:19:19;;;;;;;;;;;20.30;84.90;;;;;;4811724;30;19967;-96
2022/09/05 00:21:49;;;;;;;;;;;20.30;85.10;;;;;;4811239;30;19942;-96
2022/09/05 00:24:34;;;;;;;;;;;20.30;85.20;;;;;;4811897;30;19947;-96
2022/09/05 00:27:14;;;;;;;;;;;20.30;85.30;;;;;;4812296;30;19965;-96
2022/09/05 00:30:04;;;;;;;;;;;20.30;85.30;;;;;;4810454;30;19944;-96
2022/09/05 00:32:42;;;;;;;;;;;20.30;85.60;;;;;;4812148;30;19996;-96
2022/09/05 00:35:28;;;;;;;;;;;20.30;85.60;;;;;;4811681;30;19948;-96
2022/09/05 00:38:10;;;;;;;;;;;20.30;85.70;;;;;;4810683;29;20264;-96
2022/09/05 00:40:40;;;;;;;;;;;20.30;85.80;;;;;;4810861;30;19998;-96
2022/09/05 00:43:11;;;;;;;;;;;20.30;85.70;;;;;;4812103;30;19960;-96
2022/09/05 00:45:59;;;;;;;;;;;20.20;85.80;;;;;;4796453;30;19933;-96
2022/09/05 00:48:38;;;;;;;;;;;20.20;86.00;;;;;;4810790;30;19936;-96
2022/09/05 00:51:24;;;;;;;;;;;20.10;86.10;;;;;;4811453;30;19946;-96
2022/09/05 00:54:11;;;;;;;;;;;20.10;85.90;;;;;;4811901;30;19937;-96
2022/09/05 00:56:57;;;;;;;;;;;20.20;85.40;;;;;;4811143;29;20011;-96
2022/09/05 00:59:38;;;;;;;;;;;20.20;85.10;;;;;;4811144;30;20038;-96
2022/09/05 01:02:11;;;;;;;;;;;20.30;85.20;;;;;;4795507;30;19944;-96
2022/09/05 01:05:13;;;;;;;;;;;20.20;85.20;;;;;;4809542;30;19961;-96
2022/09/05 01:07:55;;;;;;;;;;;20.10;85.30;;;;;;4757810;30;20085;-96
2022/09/05 01:10:37;;;;;;;;;;;20.00;85.60;;;;;;4805478;30;19950;-96
2022/09/05 01:13:15;;;;;;;;;;;20.00;85.60;;;;;;4810523;29;20053;-98
2022/09/05 01:16:01;;;;;;;;;;;19.80;85.60;;;;;;4809423;30;19937;-96
2022/09/05 01:18:27;;;;;;;;;;;19.70;86.30;;;;;;4791154;30;19931;-96
2022/09/05 01:21:32;;;;;;;;;;;19.60;86.40;;;;;;4810328;30;19950;-96
2022/09/05 01:23:58;;;;;;;;;;;19.60;86.80;;;;;;4740687;30;19952;-96
2022/09/05 01:26:33;;;;;;;;;;;19.40;87.00;;;;;;4741061;30;19968;-96
2022/09/05 01:29:17;;;;;;;;;;;19.40;87.50;;;;;;4784611;30;19953;-96
2022/09/05 01:31:56;;;;;;;;;;;19.30;87.90;;;;;;4809563;30;19939;-96
2022/09/05 01:34:25;;;;;;;;;;;19.40;88.00;;;;;;4809702;30;19950;-96
2022/09/05 01:37:08;;;;;;;;;;;19.40;88.00;;;;;;4809559;30;19972;-96
2022/09/05 01:39:48;;;;;;;;;;;19.50;87.80;;;;;;4810090;30;19967;-96
2022/09/05 01:42:33;;;;;;;;;;;19.50;87.40;;;;;;4809054;30;19949;-96
2022/09/05 01:45:04;;;;;;;;;;;19.50;87.00;;;;;;4794388;30;20033;-96
2022/09/05 01:47:49;;;;;;;;;;;19.50;86.80;;;;;;4808823;30;19949;-96
2022/09/05 01:50:24;;;;;;;;;;;19.60;86.80;;;;;;4808526;29;20005;-96
2022/09/05 01:53:00;;;;;;;;;;;19.60;86.80;;;;;;4809162;30;19950;-96
2022/09/05 01:55:44;;;;;;;;;;;19.70;86.70;;;;;;4809177;30;19949;-96
2022/09/05 01:58:18;;;;;;;;;;;19.70;86.80;;;;;;4809458;30;20006;-96
2022/09/05 02:00:54;;;;;;;;;;;19.60;86.70;;;;;;4808454;30;19954;-96
2022/09/05 02:03:35;;;;;;;;;;;19.40;86.20;;;;;;4809094;30;19947;-96
2022/09/05 02:06:20;;;;;;;;;;;19.40;86.40;;;;;;4809029;30;19947;-96
2022/09/05 02:09:01;;;;;;;;;;;19.50;86.70;;;;;;4808114;30;20013;-96
2022/09/05 02:11:44;;;;;;;;;;;19.60;87.00;;;;;;4808467;29;19984;-96
2022/09/05 02:14:30;;;;;;;;;;;19.60;86.90;;;;;;4808517;30;19963;-96
2022/09/05 02:17:08;;;;;;;;;;;19.60;86.80;;;;;;4790635;30;19955;-96
2022/09/05 02:19:46;;;;;;;;;;;19.60;86.90;;;;;;4794490;30;19982;-96
2022/09/05 02:22:19;;;;;;;;;;;19.60;87.20;;;;;;4809242;30;20019;-96
2022/09/05 02:24:52;;;;;;;;;;;19.60;87.10;;;;;;4794567;30;19948;-96
2022/09/05 02:27:28;;;;;;;;;;;19.50;87.10;;;;;;4809972;30;20103;-96
2022/09/05 02:30:12;;;;;;;;;;;19.40;86.90;;;;;;4809549;30;19951;-96
2022/09/05 02:33:05;;;;;;;;;;;19.40;86.90;;;;;;4809132;30;19995;-96
2022/09/05 02:35:31;;;;;;;;;;;19.30;86.90;;;;;;4809823;30;19954;-96
2022/09/05 02:38:03;;;;;;;;;;;19.30;86.70;;;;;;4809531;30;19993;-96
2022/09/05 02:40:35;;;;;;;;;;;19.20;86.60;;;;;;4808763;30;19972;-96
2022/09/05 02:43:14;;;;;;;;;;;19.20;86.90;;;;;;4809921;30;19949;-96
2022/09/05 02:45:47;;;;;;;;;;;19.20;87.20;;;;;;4808567;30;19929;-96
2022/09/05 02:48:29;;;;;;;;;;;19.20;87.30;;;;;;4809591;30;19948;-96
2022/09/05 02:50:55;;;;;;;;;;;19.20;87.40;;;;;;4808114;30;19959;-96
2022/09/05 02:53:22;;;;;;;;;;;19.20;87.50;;;;;;4808252;30;19964;-96
2022/09/05 02:56:12;;;;;;;;;;;19.20;87.50;;;;;;4808061;30;19999;-96
2022/09/05 02:58:48;;;;;;;;;;;19.20;87.60;;;;;;4808379;30;19954;-96
2022/09/05 03:01:37;;;;;;;;;;;19.20;87.50;;;;;;4808603;29;19945;-96
2022/09/05 03:04:21;;;;;;;;;;;19.10;87.40;;;;;;4811284;30;20319;-96
2022/09/05 03:06:47;;;;;;;;;;;19.10;87.20;;;;;;4810300;30;19949;-97
2022/09/05 03:09:35;;;;;;;;;;;19.10;87.50;;;;;;4810539;30;19949;-96
2022/09/05 03:12:01;;;;;;;;;;;19.00;87.50;;;;;;4811362;30;19984;-96
2022/09/05 03:14:46;;;;;;;;;;;19.00;87.90;;;;;;4811556;30;19981;-96
2022/09/05 03:17:31;;;;;;;;;;;19.00;88.00;;;;;;4811875;30;20024;-96
2022/09/05 03:20:10;;;;;;;;;;;19.10;88.10;;;;;;4811039;30;19974;-96
2022/09/05 03:22:51;;;;;;;;;;;19.20;87.80;;;;;;4811178;30;19976;-96
2022/09/05 03:25:30;;;;;;;;;;;19.20;87.30;;;;;;4811405;30;20006;-96
2022/09/05 03:28:02;;;;;;;;;;;19.20;87.20;;;;;;4811070;30;20024;-96
2022/09/05 03:30:43;;;;;;;;;;;19.20;87.10;;;;;;4810885;30;20329;-96
2022/09/05 03:33:32;;;;;;;;;;;19.10;86.70;;;;;;4826295;29;19952;-96
2022/09/05 03:36:08;;;;;;;;;;;19.00;86.90;;;;;;4810673;30;19946;-96
2022/09/05 03:39:01;;;;;;;;;;;19.10;87.10;;;;;;4810217;30;19952;-96
2022/09/05 03:41:33;;;;;;;;;;;19.00;87.10;;;;;;4811226;30;19950;-96
2022/09/05 03:44:17;;;;;;;;;;;18.90;87.20;;;;;;4811700;30;19945;-96
2022/09/05 03:46:52;;;;;;;;;;;18.90;87.30;;;;;;4809928;30;20004;-96
2022/09/05 03:49:24;;;;;;;;;;;18.90;87.20;;;;;;4810252;30;19960;-96
2022/09/05 03:52:10;;;;;;;;;;;18.80;87.40;;;;;;4811018;30;19946;-98
2022/09/05 03:54:43;;;;;;;;;;;18.80;87.60;;;;;;4811038;30;19935;-96
2022/09/05 03:57:21;;;;;;;;;;;18.80;88.10;;;;;;4810216;30;19951;-96
2022/09/05 03:59:56;;;;;;;;;;;18.80;88.00;;;;;;4809252;30;19981;-96
2022/09/05 04:02:28;;;;;;;;;;;18.80;88.60;;;;;;4810906;30;19948;-96
2022/09/05 04:05:02;;;;;;;;;;;18.80;88.50;;;;;;4810614;30;19947;-96
2022/09/05 04:07:28;;;;;;;;;;;18.80;88.40;;;;;;4808440;30;19955;-96
2022/09/05 04:10:08;;;;;;;;;;;18.80;88.60;;;;;;4810435;30;19949;-96
2022/09/05 04:12:42;;;;;;;;;;;18.90;88.30;;;;;;4809375;29;19993;-96
2022/09/05 04:15:16;;;;;;;;;;;19.00;87.40;;;;;;4810883;30;19952;-96
2022/09/05 04:17:45;;;;;;;;;;;19.00;87.20;;;;;;4810176;30;19948;-96
2022/09/05 04:20:18;;;;;;;;;;;19.00;87.10;;;;;;4809926;30;19979;-96
2022/09/05 04:23:02;;;;;;;;;;;19.00;86.70;;;;;;4810016;30;19933;-96
2022/09/05 04:25:47;;;;;;;;;;;19.00;86.50;;;;;;4810148;30;19980;-96
2022/09/05 04:28:33;;;;;;;;;;;18.80;86.70;;;;;;4810072;30;19949;-96
2022/09/05 04:31:11;;;;;;;;;;;18.80;87.30;;;;;;4810405;30;19948;-96
2022/09/05 04:33:42;;;;;;;;;;;18.80;88.10;;;;;;4808949;30;19947;-96
2022/09/05 04:36:32;;;;;;;;;;;18.80;88.00;;;;;;4809209;30;19994;-96
2022/09/05 04:39:16;;;;;;;;;;;18.80;87.90;;;;;;4809441;30;19964;-96
2022/09/05 04:41:52;;;;;;;;;;;18.70;87.30;;;;;;4808304;30;19958;-96
2022/09/05 04:44:25;;;;;;;;;;;18.60;88.30;;;;;;4810193;30;19948;-96
2022/09/05 04:46:55;;;;;;;;;;;18.50;89.20;;;;;;4809068;30;19959;-96
2022/09/05 04:49:35;;;;;;;;;;;18.80;89.30;;;;;;4824096;29;19949;-96
2022/09/05 04:52:13;;;;;;;;;;;18.80;88.70;;;;;;4809839;30;19988;-96
2022/09/05 04:54:58;;;;;;;;;;;18.90;88.00;;;;;;4810050;30;20306;-96
2022/09/05 04:57:35;;;;;;;;;;;19.10;87.30;;;;;;4810672;30;19947;-96
2022/09/05 05:00:15;;;;;;;;;;;19.20;86.90;;;;;;4811024;30;19950;-96
2022/09/05 05:02:50;;;;;;;;;;;19.20;86.50;;;;;;4810529;30;19983;-96
2022/09/05 05:05:31;;;;;;;;;;;19.10;86.20;;;;;;4810215;30;19993;-96
2022/09/05 05:08:05;;;;;;;;;;;19.00;86.40;;;;;;4808864;30;19944;-96
2022/09/05 05:10:39;;;;;;;;;;;18.90;87.20;;;;;;4807717;30;19955;-96
2022/09/05 05:13:25;;;;;;;;;;;18.90;87.50;;;;;;4811386;29;20010;-96
2022/09/05 05:16:04;;;;;;;;;;;18.90;87.50;;;;;;4808938;30;19951;-96
2022/09/05 05:18:49;;;;;;;;;;;18.80;87.90;;;;;;4810068;30;19954;-96
2022/09/05 05:21:17;;;;;;;;;;;18.90;88.00;;;;;;4809857;30;20042;-96
2022/09/05 05:23:53;;;;;;;;;;;18.90;88.00;;;;;;4809610;29;20014;-96
2022/09/05 05:26:39;;;;;;;;;;;18.80;87.90;;;;;;4808116;30;20177;-96
2022/09/05 05:29:08;;;;;;;;;;;18.70;88.20;;;;;;4809858;29;19994;-96
2022/09/05 05:31:44;;;;;;;;;;;18.70;88.80;;;;;;4808927;30;19974;-96
2022/09/05 05:34:37;;;;;;;;;;;18.80;88.80;;;;;;4809260;30;19985;-96
2022/09/05 05:37:03;;;;;;;;;;;18.80;88.80;;;;;;4789387;30;19957;-96
2022/09/05 05:39:30;;;;;;;;;;;18.80;89.10;;;;;;4806696;30;20034;-96
2022/09/05 05:42:02;;;;;;;;;;;18.80;89.20;;;;;;4808547;30;20026;-96
2022/09/05 05:44:30;;;;;;;;;;;18.80;89.20;;;;;;4806784;30;19943;-96
2022/09/05 05:47:02;;;;;;;;;;;18.90;89.10;;;;;;4807942;30;20330;-96
2022/09/05 05:49:53;;;;;;;;;;;19.10;89.00;;;;;;4791599;30;20014;-96
2022/09/05 05:52:55;;;;;;;;;;;19.20;88.80;;;;;;4808059;30;19973;-96
2022/09/05 05:55:24;;;;;;;;;;;19.30;88.50;;;;;;4738943;30;19960;-96
2022/09/05 05:57:56;;;;;;;;;;;19.40;88.50;;;;;;4782663;30;19951;-96
2022/09/05 07:13:36;;;;;;;;;;;22.90;75.30;;;;;;4762059;24;19975;-96
2022/09/05 07:16:26;;;;;;;;;;;23.00;75.00;;;;;;4830243;29;19968;-96
2022/09/05 07:39:41;;;;;;;;;;;23.70;70.50;;;;;;5781690;24;19995;-96
2022/09/05 07:42:13;;;;;;;;;;;23.70;70.20;;;;;;5175426;24;19986;-96
2022/09/05 08:08:10;;;;;;;;;;;24.30;68.70;;;;;;4786314;24;19980;-96
2022/09/05 08:10:43;;;;;;;;;;;24.30;67.30;;;;;;5119345;24;19982;-95
2022/09/05 08:13:12;;;;;;;;;;;24.50;67.20;;;;;;4805029;29;19973;-96
2022/09/05 08:15:42;;;;;;;;;;;24.50;66.90;;;;;;5208522;24;19987;-96
2022/09/05 08:18:08;;;;;;;;;;;24.60;66.60;;;;;;4840373;29;20066;-96
2022/09/05 08:23:21;;;;;;;;;;;24.90;67.30;;;;;;3782835;24;20076;-96
2022/09/05 08:25:53;;;;;;;;;;;25.10;66.20;;;;;;4810828;29;19956;-96
2022/09/05 08:28:33;;;;;;;;;;;25.30;65.60;;;;;;4827999;29;19979;-96
2022/09/05 08:31:05;;;;;;;;;;;25.30;64.90;;;;;;4827437;29;19940;-96
2022/09/05 08:36:35;;;;;;;;;;;25.50;65.60;;;;;;5526608;24;20002;-96
2022/09/05 08:47:30;;;;;;;;;;;25.80;64.80;;;;;;4933228;24;19969;31
2022/09/05 08:50:48;;;;;;;;;;;25.90;65.00;;;;;;4854480;24;20214;-96
2022/09/05 08:53:14;;;;;;;;;;;26.10;65.00;;;;;;4796298;29;19957;-96
2022/09/05 08:55:52;;;;;;;;;;;26.30;64.10;;;;;;4938753;24;20368;-96
2022/09/05 08:58:33;;;;;;;;;;;26.30;62.50;;;;;;4803522;24;20470;-95
2022/09/05 09:01:01;;;;;;;;;;;26.40;62.50;;;;;;4812409;24;19986;-96
2022/09/05 09:03:30;;;;;;;;;;;26.50;62.70;;;;;;5049793;24;20440;-96
2022/09/05 09:06:20;;;;;;;;;;;26.50;63.00;;;;;;4793176;30;19950;-96
2022/09/05 09:19:53;;;;;;;;;;;26.70;58.50;;;;;;5572538;24;20099;-96
2022/09/05 09:27:30;;;;;;;;;;;26.80;59.10;;;;;;4928156;24;19982;-96
2022/09/05 09:32:50;;;;;;;;;;;27.10;59.90;;;;;;4994310;24;19987;-96
2022/09/05 09:35:35;;;;;;;;;;;27.30;58.90;;;;;;4826041;29;20412;-96
